SondeTracker

Meteorological Radiosondes Database

Operations

Sounding was ended - last measurement: 2022-12-06 02:20:27z

MAP
About Radiosonde

Number: D22035755 (22035755)

Launch Site: Crested Butte [CO] (US)

Type: DFM17

AUX: NO

Frequency: 404.410 MHz

Max Speed: 233 km/h at 10635 m

Average Speed: 132.39 km/h

Max Altitude: 35059 m

Average Ascent Speed: 5.37 m/s

Average Descent Speed: 6.34 m/s

Status: UNKNOWN

Status Changes
Launch Site Type AUX Frequency Status Finder Landing Point Description Changes made by
APRS Statistics

Received Frames: 379

First Frame [UTC]: 2022-12-05 23:44:09z

Last Frame [UTC]: 2022-12-06 02:20:27z

Receivers: KF0FCV, WI0K

Flight Time: 02:36:18 h

Distance From First Measurement: 292.77 km

Nearest City: Aurora [CO] (US) [45.03 km]

Nearest Hunter: KB3ZOW [58.90 km]

Ground Altitude: 1616 m

Distance from QTH: 0.00 km

APRS Data
Receiver Number Date/Time [UTC] φ λ Course [°] Speed [km/h] Altitude [m] Description
WI0KD220357552022-12-06 02:20:2739.6615-104.204299222302Clb=-2.5m/s t=0.3C h=-1.0% p=-1.0hPa 404.410 MHz Type=DFM17 ser=22035755 Radiosonde
WI0KD220357552022-12-06 02:19:5639.6605-104.203329262362Clb=-2.8m/s t=0.1C h=-1.0% p=-1.0hPa 404.407 MHz Type=DFM17 ser=22035755 Radiosonde
WI0KD220357552022-12-06 02:19:2539.6589-104.201312262438Clb=-2.6m/s t=-0.4C h=-1.0% p=-1.0hPa 404.410 MHz Type=DFM17 ser=22035755 Radiosonde
WI0KD220357552022-12-06 02:18:5439.657-104.2331352516Clb=-2.4m/s t=-0.7C h=-1.0% p=-1.0hPa 404.410 MHz Type=DFM17 ser=22035755 Radiosonde
WI0KD220357552022-12-06 02:18:2339.6547-104.199355352580Clb=-1.7m/s t=-0.9C h=-1.0% p=-1.0hPa 404.410 MHz Type=DFM17 ser=22035755 Radiosonde
WI0KD220357552022-12-06 02:17:5239.6515-104.198351412649Clb=-2.5m/s t=-0.4C h=-1.0% p=-1.0hPa 404.410 MHz Type=DFM17 ser=22035755 Radiosonde
WI0KD220357552022-12-06 02:17:2139.6488-104.19928432724Clb=-3.0m/s t=0.2C h=-1.0% p=-1.0hPa 404.410 MHz Type=DFM17 ser=22035755 Radiosonde
WI0KD220357552022-12-06 02:16:5039.6458-104.20126442801Clb=-2.6m/s t=0.6C h=-1.0% p=-1.0hPa 404.410 MHz Type=DFM17 ser=22035755 Radiosonde
WI0KD220357552022-12-06 02:16:1939.6428-104.20448442890Clb=-2.9m/s t=0.2C h=-1.0% p=-1.0hPa 404.410 MHz Type=DFM17 ser=22035755 Radiosonde
WI0KD220357552022-12-06 02:15:4839.64-104.20849592982Clb=-3.0m/s t=-0.4C h=-1.0% p=-1.0hPa 404.410 MHz Type=DFM17 ser=22035755 Radiosonde
WI0KD220357552022-12-06 02:15:1739.6372-104.21252483075Clb=-2.8m/s t=-0.8C h=-1.0% p=-1.0hPa 404.410 MHz Type=DFM17 ser=22035755 Radiosonde
WI0KD220357552022-12-06 02:14:4639.6347-104.21753503168Clb=-3.1m/s t=-1.6C h=-1.0% p=-1.0hPa 404.410 MHz Type=DFM17 ser=22035755 Radiosonde
WI0KD220357552022-12-06 02:14:1439.6319-104.22260633271Clb=-3.1m/s t=-2.6C h=-1.0% p=-1.0hPa 404.410 MHz Type=DFM17 ser=22035755 Radiosonde
WI0KD220357552022-12-06 02:13:4339.6291-104.22751693373Clb=-3.5m/s t=-3.3C h=-1.0% p=-1.0hPa 404.410 MHz Type=DFM17 ser=22035755 Radiosonde
WI0KD220357552022-12-06 02:13:1239.6263-104.23262593474Clb=-3.0m/s t=-4.1C h=-1.0% p=-1.0hPa 404.410 MHz Type=DFM17 ser=22035755 Radiosonde
WI0KD220357552022-12-06 02:12:4139.6234-104.23862763584Clb=-3.9m/s t=-5.1C h=-1.0% p=-1.0hPa 404.410 MHz Type=DFM17 ser=22035755 Radiosonde
WI0KD220357552022-12-06 02:12:1039.6203-104.24452783702Clb=-3.3m/s t=-6.2C h=-1.0% p=-1.0hPa 404.410 MHz Type=DFM17 ser=22035755 Radiosonde
WI0KD220357552022-12-06 02:11:3939.6172-104.25160653798Clb=-2.8m/s t=-7.0C h=-1.0% p=-1.0hPa 404.410 MHz Type=DFM17 ser=22035755 Radiosonde
WI0KD220357552022-12-06 02:11:0839.6143-104.25766693883Clb=-2.9m/s t=-7.8C h=-1.0% p=-1.0hPa 404.410 MHz Type=DFM17 ser=22035755 Radiosonde
WI0KD220357552022-12-06 02:10:3739.6116-104.26465803966Clb=-2.9m/s t=-8.6C h=-1.0% p=-1.0hPa 404.410 MHz Type=DFM17 ser=22035755 Radiosonde
WI0KD220357552022-12-06 02:10:0839.6091-104.2757724069Clb=-3.2m/s t=-9.5C h=-1.0% p=-1.0hPa 404.410 MHz Type=DFM17 ser=22035755 Radiosonde
WI0KD220357552022-12-06 02:09:3539.6068-104.27774704166Clb=-2.9m/s t=-10.1C h=-1.0% p=-1.0hPa 404.410 MHz Type=DFM17 ser=22035755 Radiosonde
WI0KD220357552022-12-06 02:09:0439.6047-104.28467674260Clb=-2.8m/s t=-11.0C h=-1.0% p=-1.0hPa 404.410 MHz Type=DFM17 ser=22035755 Radiosonde
WI0KD220357552022-12-06 02:08:3339.6028-104.29171874349Clb=-2.8m/s t=-11.8C h=-1.0% p=-1.0hPa 404.410 MHz Type=DFM17 ser=22035755 Radiosonde
WI0KD220357552022-12-06 02:08:0239.601-104.29979784449Clb=-3.9m/s t=-12.8C h=-1.0% p=-1.0hPa 404.410 MHz Type=DFM17 ser=22035755 Radiosonde
WI0KD220357552022-12-06 02:07:3139.5993-104.30776724563Clb=-3.6m/s t=-13.9C h=-1.0% p=-1.0hPa 404.410 MHz Type=DFM17 ser=22035755 Radiosonde
KF0FCVD220357552022-12-06 02:07:0139.5979-104.31578934678Clb=-3.7m/s t=-14.8C h=-1.0% p=-1.0hPa 404.410 MHz Type=DFM17 ser=22035755 Radiosonde
WI0KD220357552022-12-06 02:07:0039.5979-104.31578934678Clb=-3.7m/s t=-14.8C h=-1.0% p=-1.0hPa 404.410 MHz Type=DFM17 ser=22035755 Radiosonde
KF0FCVD220357552022-12-06 02:06:3039.5967-104.32479984765Clb=-3.3m/s t=-15.1C h=-1.0% p=-1.0hPa 404.410 MHz Type=DFM17 ser=22035755 Radiosonde
WI0KD220357552022-12-06 02:06:2939.5966-104.32579964771Clb=-3.5m/s t=-15.1C h=-1.0% p=-1.0hPa 404.410 MHz Type=DFM17 ser=22035755 Radiosonde
KF0FCVD220357552022-12-06 02:05:5939.5952-104.334781004872Clb=-3.6m/s t=-16.1C h=-1.0% p=-1.0hPa 404.410 MHz Type=DFM17 ser=22035755 Radiosonde
WI0KD220357552022-12-06 02:05:5739.5952-104.33478984875Clb=-3.2m/s t=-16.1C h=-1.0% p=-1.0hPa 404.410 MHz Type=DFM17 ser=22035755 Radiosonde
KF0FCVD220357552022-12-06 02:05:2839.5936-104.344781024961Clb=-3.1m/s t=-16.9C h=-1.0% p=-1.0hPa 404.410 MHz Type=DFM17 ser=22035755 Radiosonde
WI0KD220357552022-12-06 02:05:2639.5935-104.344781024967Clb=-2.9m/s t=-16.9C h=-1.0% p=-1.0hPa 404.410 MHz Type=DFM17 ser=22035755 Radiosonde
KF0FCVD220357552022-12-06 02:04:5739.5919-104.354771045057Clb=-3.2m/s t=-17.7C h=-1.0% p=-1.0hPa 404.410 MHz Type=DFM17 ser=22035755 Radiosonde
WI0KD220357552022-12-06 02:04:5539.5918-104.354761045060Clb=-3.0m/s t=-17.7C h=-1.0% p=-1.0hPa 404.410 MHz Type=DFM17 ser=22035755 Radiosonde
KF0FCVD220357552022-12-06 02:04:2539.5901-104.364751045139Clb=-2.7m/s t=-18.5C h=-1.0% p=-1.0hPa 404.410 MHz Type=DFM17 ser=22035755 Radiosonde
WI0KD220357552022-12-06 02:04:2439.5899-104.365741025147Clb=-2.4m/s t=-18.6C h=-1.0% p=-1.0hPa 404.410 MHz Type=DFM17 ser=22035755 Radiosonde
KF0FCVD220357552022-12-06 02:03:5439.5879-104.374751005219Clb=-2.1m/s t=-19.2C h=-1.0% p=-1.0hPa 404.410 MHz Type=DFM17 ser=22035755 Radiosonde
WI0KD220357552022-12-06 02:03:5339.5879-104.374751005219Clb=-2.1m/s t=-19.2C h=-1.0% p=-1.0hPa 404.410 MHz Type=DFM17 ser=22035755 Radiosonde
KF0FCVD220357552022-12-06 02:03:2339.5858-104.384741065285Clb=-1.9m/s t=-19.8C h=-1.0% p=-1.0hPa 404.410 MHz Type=DFM17 ser=22035755 Radiosonde
WI0KD220357552022-12-06 02:03:2239.5858-104.384741065286Clb=-2.2m/s t=-19.8C h=-1.0% p=-1.0hPa 404.410 MHz Type=DFM17 ser=22035755 Radiosonde
KF0FCVD220357552022-12-06 02:02:5239.5839-104.394761045346Clb=-1.9m/s t=-20.1C h=-1.0% p=-1.0hPa 404.410 MHz Type=DFM17 ser=22035755 Radiosonde
WI0KD220357552022-12-06 02:02:5139.5838-104.394751065348Clb=-1.9m/s t=-20.1C h=-1.0% p=-1.0hPa 404.410 MHz Type=DFM17 ser=22035755 Radiosonde
KF0FCVD220357552022-12-06 02:02:2139.5821-104.404771005407Clb=-2.0m/s t=-20.5C h=-1.0% p=-1.0hPa 404.410 MHz Type=DFM17 ser=22035755 Radiosonde
WI0KD220357552022-12-06 02:02:2039.582-104.404771045409Clb=-1.7m/s t=-20.5C h=-1.0% p=-1.0hPa 404.410 MHz Type=DFM17 ser=22035755 Radiosonde
KF0FCVD220357552022-12-06 02:01:5039.5802-104.414771075464Clb=-1.9m/s t=-20.7C h=-1.0% p=-1.0hPa 404.410 MHz Type=DFM17 ser=22035755 Radiosonde
WI0KD220357552022-12-06 02:01:4939.5801-104.415771075468Clb=-1.7m/s t=-20.6C h=-1.0% p=-1.0hPa 404.410 MHz Type=DFM17 ser=22035755 Radiosonde
KF0FCVD220357552022-12-06 02:01:1939.5783-104.425761075522Clb=-2.1m/s t=-20.6C h=-1.0% p=-1.0hPa 404.410 MHz Type=DFM17 ser=22035755 Radiosonde
WI0KD220357552022-12-06 02:01:1839.5782-104.425771095524Clb=-2.4m/s t=-20.7C h=-1.0% p=-1.0hPa 404.410 MHz Type=DFM17 ser=22035755 Radiosonde
KF0FCVD220357552022-12-06 02:00:4839.5762-104.435741075591Clb=-2.6m/s t=-20.9C h=-1.0% p=-1.0hPa 404.410 MHz Type=DFM17 ser=22035755 Radiosonde
WI0KD220357552022-12-06 02:00:4739.5761-104.436761095594Clb=-2.7m/s t=-20.9C h=-1.0% p=-1.0hPa 404.410 MHz Type=DFM17 ser=22035755 Radiosonde
KF0FCVD220357552022-12-06 02:00:1739.5742-104.446771155676Clb=-3.2m/s t=-21.0C h=-1.0% p=-1.0hPa 404.410 MHz Type=DFM17 ser=22035755 Radiosonde
WI0KD220357552022-12-06 02:00:1639.5741-104.447781175679Clb=-3.1m/s t=-21.0C h=-1.0% p=-1.0hPa 404.410 MHz Type=DFM17 ser=22035755 Radiosonde
KF0FCVD220357552022-12-06 01:59:4639.5724-104.457791095776Clb=-3.5m/s t=-20.8C h=-1.0% p=-1.0hPa 404.410 MHz Type=DFM17 ser=22035755 Radiosonde
WI0KD220357552022-12-06 01:59:4539.5723-104.458771095779Clb=-3.2m/s t=-20.9C h=-1.0% p=-1.0hPa 404.410 MHz Type=DFM17 ser=22035755 Radiosonde
KF0FCVD220357552022-12-06 01:59:1539.5708-104.468811095895Clb=-3.8m/s t=-21.9C h=-1.0% p=-1.0hPa 404.410 MHz Type=DFM17 ser=22035755 Radiosonde
WI0KD220357552022-12-06 01:59:1439.5707-104.469811095902Clb=-4.0m/s t=-21.9C h=-1.0% p=-1.0hPa 404.410 MHz Type=DFM17 ser=22035755 Radiosonde
KF0FCVD220357552022-12-06 01:58:4439.5694-104.479801066025Clb=-4.4m/s t=-23.0C h=-1.0% p=-1.0hPa 404.410 MHz Type=DFM17 ser=22035755 Radiosonde
WI0KD220357552022-12-06 01:58:4339.5694-104.479821076029Clb=-4.1m/s t=-23.1C h=-1.0% p=-1.0hPa 404.410 MHz Type=DFM17 ser=22035755 Radiosonde
KF0FCVD220357552022-12-06 01:58:1339.5682-104.489801066160Clb=-4.5m/s t=-24.2C h=-1.0% p=-1.0hPa 404.410 MHz Type=DFM17 ser=22035755 Radiosonde
WI0KD220357552022-12-06 01:58:1139.5681-104.49821066168Clb=-4.3m/s t=-24.3C h=-1.0% p=-1.0hPa 404.410 MHz Type=DFM17 ser=22035755 Radiosonde
KF0FCVD220357552022-12-06 01:57:4239.5667-104.5781096302Clb=-4.7m/s t=-25.2C h=-1.0% p=-1.0hPa 404.410 MHz Type=DFM17 ser=22035755 Radiosonde
WI0KD220357552022-12-06 01:57:4039.5666-104.501771096311Clb=-4.7m/s t=-25.2C h=-1.0% p=-1.0hPa 404.410 MHz Type=DFM17 ser=22035755 Radiosonde
KF0FCVD220357552022-12-06 01:57:1139.5647-104.512761176457Clb=-4.8m/s t=-26.2C h=-1.0% p=-1.0hPa 404.410 MHz Type=DFM17 ser=22035755 Radiosonde
WI0KD220357552022-12-06 01:57:0939.5646-104.512761176466Clb=-4.9m/s t=-26.3C h=-1.0% p=-1.0hPa 404.410 MHz Type=DFM17 ser=22035755 Radiosonde
KF0FCVD220357552022-12-06 01:56:4039.5626-104.523741156600Clb=-4.8m/s t=-27.4C h=-1.0% p=-1.0hPa 404.410 MHz Type=DFM17 ser=22035755 Radiosonde
WI0KD220357552022-12-06 01:56:3839.5625-104.523741176609Clb=-4.7m/s t=-27.5C h=-1.0% p=-1.0hPa 404.410 MHz Type=DFM17 ser=22035755 Radiosonde
KF0FCVD220357552022-12-06 01:56:0939.5602-104.534741206741Clb=-3.9m/s t=-28.5C h=-1.0% p=-1.0hPa 404.410 MHz Type=DFM17 ser=22035755 Radiosonde
WI0KD220357552022-12-06 01:56:0739.5601-104.535751206744Clb=-4.2m/s t=-28.5C h=-1.0% p=-1.0hPa 404.410 MHz Type=DFM17 ser=22035755 Radiosonde
KF0FCVD220357552022-12-06 01:55:3739.5578-104.546761266866Clb=-3.9m/s t=-29.2C h=-1.0% p=-1.0hPa 404.410 MHz Type=DFM17 ser=22035755 Radiosonde
WI0KD220357552022-12-06 01:55:3639.5578-104.547761286870Clb=-3.8m/s t=-29.3C h=-1.0% p=-1.0hPa 404.410 MHz Type=DFM17 ser=22035755 Radiosonde
KF0FCVD220357552022-12-06 01:55:0639.5555-104.559751306981Clb=-3.3m/s t=-30.1C h=-1.0% p=-1.0hPa 404.410 MHz Type=DFM17 ser=22035755 Radiosonde
WI0KD220357552022-12-06 01:55:0539.5554-104.559761306984Clb=-3.3m/s t=-30.1C h=-1.0% p=-1.0hPa 404.410 MHz Type=DFM17 ser=22035755 Radiosonde
KF0FCVD220357552022-12-06 01:54:3539.5528-104.572741317084Clb=-3.5m/s t=-30.6C h=-1.0% p=-1.0hPa 404.410 MHz Type=DFM17 ser=22035755 Radiosonde
WI0KD220357552022-12-06 01:54:3439.5526-104.573741337090Clb=-3.3m/s t=-30.7C h=-1.0% p=-1.0hPa 404.410 MHz Type=DFM17 ser=22035755 Radiosonde
KF0FCVD220357552022-12-06 01:54:0439.55-104.585731337177Clb=-2.7m/s t=-31.1C h=-1.0% p=-1.0hPa 404.410 MHz Type=DFM17 ser=22035755 Radiosonde
WI0KD220357552022-12-06 01:54:0339.5499-104.585731357180Clb=-2.8m/s t=-31.1C h=-1.0% p=-1.0hPa 404.410 MHz Type=DFM17 ser=22035755 Radiosonde
KF0FCVD220357552022-12-06 01:53:3339.5468-104.598721377257Clb=-2.3m/s t=-31.5C h=-1.0% p=-1.0hPa 404.410 MHz Type=DFM17 ser=22035755 Radiosonde
WI0KD220357552022-12-06 01:53:3239.5467-104.598721357260Clb=-2.5m/s t=-31.5C h=-1.0% p=-1.0hPa 404.410 MHz Type=DFM17 ser=22035755 Radiosonde
KF0FCVD220357552022-12-06 01:53:0239.5438-104.611741377334Clb=-2.3m/s t=-32.1C h=-1.0% p=-1.0hPa 404.410 MHz Type=DFM17 ser=22035755 Radiosonde
WI0KD220357552022-12-06 01:53:0139.5437-104.611741357337Clb=-2.2m/s t=-32.1C h=-1.0% p=-1.0hPa 404.410 MHz Type=DFM17 ser=22035755 Radiosonde
KF0FCVD220357552022-12-06 01:52:3139.5406-104.625741437408Clb=-2.2m/s t=-32.5C h=-1.0% p=-1.0hPa 404.410 MHz Type=DFM17 ser=22035755 Radiosonde
WI0KD220357552022-12-06 01:52:3039.5406-104.625741437408Clb=-2.2m/s t=-32.5C h=-1.0% p=-1.0hPa 404.410 MHz Type=DFM17 ser=22035755 Radiosonde
KF0FCVD220357552022-12-06 01:52:0039.5379-104.639751467476Clb=-1.9m/s t=-32.8C h=-1.0% p=-1.0hPa 404.410 MHz Type=DFM17 ser=22035755 Radiosonde
WI0KD220357552022-12-06 01:51:5939.5377-104.639751467479Clb=-2.2m/s t=-32.9C h=-1.0% p=-1.0hPa 404.410 MHz Type=DFM17 ser=22035755 Radiosonde
KF0FCVD220357552022-12-06 01:51:2939.5351-104.653751487546Clb=-2.3m/s t=-33.4C h=-1.0% p=-1.0hPa 404.410 MHz Type=DFM17 ser=22035755 Radiosonde
WI0KD220357552022-12-06 01:51:2739.535-104.653761467549Clb=-2.4m/s t=-33.5C h=-1.0% p=-1.0hPa 404.410 MHz Type=DFM17 ser=22035755 Radiosonde
KF0FCVD220357552022-12-06 01:50:5839.5325-104.667761467625Clb=-2.6m/s t=-34.1C h=-1.0% p=-1.0hPa 404.410 MHz Type=DFM17 ser=22035755 Radiosonde
WI0KD220357552022-12-06 01:50:5639.5323-104.668761467630Clb=-2.6m/s t=-34.2C h=-1.0% p=-1.0hPa 404.410 MHz Type=DFM17 ser=22035755 Radiosonde
KF0FCVD220357552022-12-06 01:50:2739.5299-104.682761447708Clb=-2.9m/s t=-34.9C h=-1.0% p=-1.0hPa 404.410 MHz Type=DFM17 ser=22035755 Radiosonde
WI0KD220357552022-12-06 01:50:2539.5298-104.682761447714Clb=-2.9m/s t=-35.0C h=-1.0% p=-1.0hPa 404.410 MHz Type=DFM17 ser=22035755 Radiosonde
KF0FCVD220357552022-12-06 01:49:5639.5273-104.696761467806Clb=-3.1m/s t=-35.8C h=-1.0% p=-1.0hPa 404.410 MHz Type=DFM17 ser=22035755 Radiosonde
WI0KD220357552022-12-06 01:49:5439.5272-104.697761437809Clb=-3.2m/s t=-35.8C h=-1.0% p=-1.0hPa 404.410 MHz Type=DFM17 ser=22035755 Radiosonde
KF0FCVD220357552022-12-06 01:49:2539.5248-104.71761447903Clb=-3.3m/s t=-36.6C h=-1.0% p=-1.0hPa 404.410 MHz Type=DFM17 ser=22035755 Radiosonde
WI0KD220357552022-12-06 01:49:2339.5246-104.711761447910Clb=-3.3m/s t=-36.7C h=-1.0% p=-1.0hPa 404.410 MHz Type=DFM17 ser=22035755 Radiosonde
KF0FCVD220357552022-12-06 01:48:5439.5219-104.724751508012Clb=-3.4m/s t=-37.4C h=-1.0% p=-1.0hPa 404.410 MHz Type=DFM17 ser=22035755 Radiosonde
WI0KD220357552022-12-06 01:48:5239.5217-104.725761528019Clb=-3.8m/s t=-37.4C h=-1.0% p=-1.0hPa 404.410 MHz Type=DFM17 ser=22035755 Radiosonde
KF0FCVD220357552022-12-06 01:48:2339.519-104.739751618123Clb=-3.4m/s t=-37.8C h=-1.0% p=-1.0hPa 404.410 MHz Type=DFM17 ser=22035755 Radiosonde
WI0KD220357552022-12-06 01:48:2139.5188-104.74741618130Clb=-3.4m/s t=-37.8C h=-1.0% p=-1.0hPa 404.410 MHz Type=DFM17 ser=22035755 Radiosonde
KF0FCVD220357552022-12-06 01:47:5239.5155-104.755721658233Clb=-3.7m/s t=-38.1C h=-1.0% p=-1.0hPa 404.410 MHz Type=DFM17 ser=22035755 Radiosonde
WI0KD220357552022-12-06 01:47:5039.5153-104.756731678241Clb=-3.8m/s t=-38.1C h=-1.0% p=-1.0hPa 404.410 MHz Type=DFM17 ser=22035755 Radiosonde
KF0FCVD220357552022-12-06 01:47:2139.5114-104.772711638360Clb=-4.1m/s t=-39.1C h=-1.0% p=-1.0hPa 404.410 MHz Type=DFM17 ser=22035755 Radiosonde
WI0KD220357552022-12-06 01:47:1939.5113-104.772711678364Clb=-3.8m/s t=-39.2C h=-1.0% p=-1.0hPa 404.410 MHz Type=DFM17 ser=22035755 Radiosonde
KF0FCVD220357552022-12-06 01:46:4939.5074-104.787711678479Clb=-4.0m/s t=-40.2C h=-1.0% p=-1.0hPa 404.410 MHz Type=DFM17 ser=22035755 Radiosonde
WI0KD220357552022-12-06 01:46:4839.5072-104.788721658483Clb=-3.9m/s t=-40.3C h=-1.0% p=-1.0hPa 404.410 MHz Type=DFM17 ser=22035755 Radiosonde
KF0FCVD220357552022-12-06 01:46:1839.5034-104.803731658601Clb=-4.0m/s t=-41.2C h=-1.0% p=-1.0hPa 404.410 MHz Type=DFM17 ser=22035755 Radiosonde
WI0KD220357552022-12-06 01:46:1739.5033-104.804721678605Clb=-3.8m/s t=-41.2C h=-1.0% p=-1.0hPa 404.410 MHz Type=DFM17 ser=22035755 Radiosonde
KF0FCVD220357552022-12-06 01:45:4739.4995-104.819721708718Clb=-3.7m/s t=-42.0C h=-1.0% p=-1.0hPa 404.410 MHz Type=DFM17 ser=22035755 Radiosonde
WI0KD220357552022-12-06 01:45:4639.4993-104.821721728726Clb=-3.6m/s t=-42.0C h=-1.0% p=-1.0hPa 404.410 MHz Type=DFM17 ser=22035755 Radiosonde
KF0FCVD220357552022-12-06 01:45:1639.4956-104.837741748834Clb=-3.6m/s t=-42.6C h=-1.0% p=-1.0hPa 404.410 MHz Type=DFM17 ser=22035755 Radiosonde
WI0KD220357552022-12-06 01:45:1539.4956-104.837741748834Clb=-3.6m/s t=-42.6C h=-1.0% p=-1.0hPa 404.410 MHz Type=DFM17 ser=22035755 Radiosonde
KF0FCVD220357552022-12-06 01:44:4539.4919-104.853741818939Clb=-3.5m/s t=-43.4C h=-1.0% p=-1.0hPa 404.410 MHz Type=DFM17 ser=22035755 Radiosonde
WI0KD220357552022-12-06 01:44:4439.4918-104.854741808942Clb=-3.5m/s t=-43.4C h=-1.0% p=-1.0hPa 404.410 MHz Type=DFM17 ser=22035755 Radiosonde
KF0FCVD220357552022-12-06 01:44:1439.4881-104.871741809047Clb=-3.4m/s t=-44.3C h=-1.0% p=-1.0hPa 404.410 MHz Type=DFM17 ser=22035755 Radiosonde
WI0KD220357552022-12-06 01:44:1339.4879-104.872741819050Clb=-3.4m/s t=-44.3C h=-1.0% p=-1.0hPa 404.410 MHz Type=DFM17 ser=22035755 Radiosonde
KF0FCVD220357552022-12-06 01:43:4339.4844-104.889761839146Clb=-3.4m/s t=-45.0C h=-1.0% p=-1.0hPa 404.410 MHz Type=DFM17 ser=22035755 Radiosonde
WI0KD220357552022-12-06 01:43:4239.4841-104.891751879155Clb=-3.2m/s t=-45.0C h=-1.0% p=-1.0hPa 404.410 MHz Type=DFM17 ser=22035755 Radiosonde
KF0FCVD220357552022-12-06 01:43:1239.4808-104.907761939247Clb=-3.4m/s t=-45.6C h=-1.0% p=-1.0hPa 404.410 MHz Type=DFM17 ser=22035755 Radiosonde
WI0KD220357552022-12-06 01:43:1139.4806-104.908761939254Clb=-3.3m/s t=-45.6C h=-1.0% p=-1.0hPa 404.410 MHz Type=DFM17 ser=22035755 Radiosonde
KF0FCVD220357552022-12-06 01:42:4139.4771-104.927772049356Clb=-3.5m/s t=-46.0C h=-1.0% p=-1.0hPa 404.410 MHz Type=DFM17 ser=22035755 Radiosonde
WI0KD220357552022-12-06 01:42:4039.477-104.928782009360Clb=-3.3m/s t=-46.0C h=-1.0% p=-1.0hPa 404.410 MHz Type=DFM17 ser=22035755 Radiosonde
KF0FCVD220357552022-12-06 01:42:1039.4739-104.947772049461Clb=-3.5m/s t=-46.1C h=-1.0% p=-1.0hPa 404.410 MHz Type=DFM17 ser=22035755 Radiosonde
WI0KD220357552022-12-06 01:42:0839.4737-104.948772029469Clb=-3.6m/s t=-46.1C h=-1.0% p=-1.0hPa 404.410 MHz Type=DFM17 ser=22035755 Radiosonde
KF0FCVD220357552022-12-06 01:41:3939.4705-104.967782069577Clb=-3.9m/s t=-46.7C h=-1.0% p=-1.0hPa 404.410 MHz Type=DFM17 ser=22035755 Radiosonde
WI0KD220357552022-12-06 01:41:3739.4703-104.968782069585Clb=-3.5m/s t=-46.8C h=-1.0% p=-1.0hPa 404.410 MHz Type=DFM17 ser=22035755 Radiosonde
KF0FCVD220357552022-12-06 01:41:0839.4674-104.987782069694Clb=-3.8m/s t=-47.5C h=-1.0% p=-1.0hPa 404.410 MHz Type=DFM17 ser=22035755 Radiosonde
WI0KD220357552022-12-06 01:41:0639.467-104.989782099705Clb=-3.9m/s t=-47.6C h=-1.0% p=-1.0hPa 404.410 MHz Type=DFM17 ser=22035755 Radiosonde
KF0FCVD220357552022-12-06 01:40:3739.4642-105.008782049814Clb=-3.6m/s t=-47.9C h=-1.0% p=-1.0hPa 404.410 MHz Type=DFM17 ser=22035755 Radiosonde
WI0KD220357552022-12-06 01:40:3539.464-105.009782049822Clb=-3.8m/s t=-47.9C h=-1.0% p=-1.0hPa 404.410 MHz Type=DFM17 ser=22035755 Radiosonde
KF0FCVD220357552022-12-06 01:40:0639.4606-105.028762079929Clb=-3.5m/s t=-48.3C h=-1.0% p=-1.0hPa 404.410 MHz Type=DFM17 ser=22035755 Radiosonde
WI0KD220357552022-12-06 01:40:0439.4603-105.029762079936Clb=-3.6m/s t=-48.3C h=-1.0% p=-1.0hPa 404.410 MHz Type=DFM17 ser=22035755 Radiosonde
KF0FCVD220357552022-12-06 01:39:3539.4567-105.0497620910039Clb=-3.5m/s t=-49.1C h=-1.0% p=-1.0hPa 404.410 MHz Type=DFM17 ser=22035755 Radiosonde
WI0KD220357552022-12-06 01:39:3339.4564-105.057620910045Clb=-3.6m/s t=-49.2C h=-1.0% p=-1.0hPa 404.410 MHz Type=DFM17 ser=22035755 Radiosonde
KF0FCVD220357552022-12-06 01:39:0439.4529-105.0697720910138Clb=-3.1m/s t=-49.9C h=-1.0% p=-1.0hPa 404.410 MHz Type=DFM17 ser=22035755 Radiosonde
WI0KD220357552022-12-06 01:39:0239.4527-105.077720910144Clb=-3.2m/s t=-50.0C h=-1.0% p=-1.0hPa 404.410 MHz Type=DFM17 ser=22035755 Radiosonde
KF0FCVD220357552022-12-06 01:38:3239.4487-105.097420910232Clb=-2.8m/s t=-50.3C h=-1.0% p=-1.0hPa 404.410 MHz Type=DFM17 ser=22035755 Radiosonde
WI0KD220357552022-12-06 01:38:3139.4484-105.0917320910237Clb=-2.8m/s t=-50.3C h=-1.0% p=-1.0hPa 404.410 MHz Type=DFM17 ser=22035755 Radiosonde
KF0FCVD220357552022-12-06 01:38:0139.4442-105.117220910312Clb=-2.2m/s t=-50.7C h=-1.0% p=-1.0hPa 404.410 MHz Type=DFM17 ser=22035755 Radiosonde
WI0KD220357552022-12-06 01:38:0039.444-105.1117321310314Clb=-2.5m/s t=-50.7C h=-1.0% p=-1.0hPa 404.410 MHz Type=DFM17 ser=22035755 Radiosonde
KF0FCVD220357552022-12-06 01:37:3039.4393-105.1317221510386Clb=-2.4m/s t=-51.1C h=-1.0% p=-1.0hPa 404.410 MHz Type=DFM17 ser=22035755 Radiosonde
WI0KD220357552022-12-06 01:37:2939.4391-105.1317321910389Clb=-2.4m/s t=-51.1C h=-1.0% p=-1.0hPa 404.410 MHz Type=DFM17 ser=22035755 Radiosonde
KF0FCVD220357552022-12-06 01:36:5939.4344-105.1527322010462Clb=-2.7m/s t=-51.3C h=-1.0% p=-1.0hPa 404.410 MHz Type=DFM17 ser=22035755 Radiosonde
WI0KD220357552022-12-06 01:36:5839.4343-105.1537322610465Clb=-2.4m/s t=-51.3C h=-1.0% p=-1.0hPa 404.410 MHz Type=DFM17 ser=22035755 Radiosonde
KF0FCVD220357552022-12-06 01:36:2839.4295-105.1747423210543Clb=-2.8m/s t=-51.7C h=-1.0% p=-1.0hPa 404.410 MHz Type=DFM17 ser=22035755 Radiosonde
WI0KD220357552022-12-06 01:36:2739.4295-105.1747423210543Clb=-2.8m/s t=-51.7C h=-1.0% p=-1.0hPa 404.410 MHz Type=DFM17 ser=22035755 Radiosonde
KF0FCVD220357552022-12-06 01:35:5739.4249-105.1967523210630Clb=-3.1m/s t=-51.9C h=-1.0% p=-1.0hPa 404.410 MHz Type=DFM17 ser=22035755 Radiosonde
WI0KD220357552022-12-06 01:35:5639.4246-105.1987523310635Clb=-3.1m/s t=-51.9C h=-1.0% p=-1.0hPa 404.410 MHz Type=DFM17 ser=22035755 Radiosonde
KF0FCVD220357552022-12-06 01:35:2639.4202-105.2197523210728Clb=-3.5m/s t=-52.2C h=-1.0% p=-1.0hPa 404.410 MHz Type=DFM17 ser=22035755 Radiosonde
WI0KD220357552022-12-06 01:35:2539.4199-105.227523210734Clb=-3.4m/s t=-52.3C h=-1.0% p=-1.0hPa 404.410 MHz Type=DFM17 ser=22035755 Radiosonde
KF0FCVD220357552022-12-06 01:34:5539.4157-105.2417522610838Clb=-3.9m/s t=-52.8C h=-1.0% p=-1.0hPa 404.410 MHz Type=DFM17 ser=22035755 Radiosonde
WI0KD220357552022-12-06 01:34:5439.4154-105.2427522410846Clb=-3.9m/s t=-52.8C h=-1.0% p=-1.0hPa 404.410 MHz Type=DFM17 ser=22035755 Radiosonde
KF0FCVD220357552022-12-06 01:34:2439.4109-105.2637422810966Clb=-4.4m/s t=-53.2C h=-1.0% p=-1.0hPa 404.410 MHz Type=DFM17 ser=22035755 Radiosonde
WI0KD220357552022-12-06 01:34:2339.4108-105.2637322410970Clb=-4.4m/s t=-53.2C h=-1.0% p=-1.0hPa 404.410 MHz Type=DFM17 ser=22035755 Radiosonde
KF0FCVD220357552022-12-06 01:33:5339.4057-105.2857222411115Clb=-4.8m/s t=-53.7C h=-1.0% p=-1.0hPa 404.410 MHz Type=DFM17 ser=22035755 Radiosonde
WI0KD220357552022-12-06 01:33:5139.4054-105.2867222211125Clb=-4.9m/s t=-53.7C h=-1.0% p=-1.0hPa 404.410 MHz Type=DFM17 ser=22035755 Radiosonde
KF0FCVD220357552022-12-06 01:33:2239.4012-105.3057521711262Clb=-5.0m/s t=-53.8C h=-1.0% p=-1.0hPa 404.410 MHz Type=DFM17 ser=22035755 Radiosonde
WI0KD220357552022-12-06 01:33:2039.4009-105.3077521711271Clb=-4.8m/s t=-53.8C h=-1.0% p=-1.0hPa 404.410 MHz Type=DFM17 ser=22035755 Radiosonde
KF0FCVD220357552022-12-06 01:32:5139.3972-105.3267820911412Clb=-4.7m/s t=-54.0C h=-1.0% p=-1.0hPa 404.410 MHz Type=DFM17 ser=22035755 Radiosonde
WI0KD220357552022-12-06 01:32:4939.397-105.3277821111422Clb=-5.0m/s t=-54.1C h=-1.0% p=-1.0hPa 404.410 MHz Type=DFM17 ser=22035755 Radiosonde
KF0FCVD220357552022-12-06 01:32:2039.3941-105.3478020611555Clb=-4.2m/s t=-55.0C h=-1.0% p=-1.0hPa 404.410 MHz Type=DFM17 ser=22035755 Radiosonde
WI0KD220357552022-12-06 01:32:1839.394-105.3488120611564Clb=-4.3m/s t=-55.1C h=-1.0% p=-1.0hPa 404.410 MHz Type=DFM17 ser=22035755 Radiosonde
KF0FCVD220357552022-12-06 01:31:4939.3917-105.3678019811683Clb=-3.8m/s t=-55.9C h=-1.0% p=-1.0hPa 404.410 MHz Type=DFM17 ser=22035755 Radiosonde
WI0KD220357552022-12-06 01:31:4739.3915-105.3687919611691Clb=-4.0m/s t=-55.9C h=-1.0% p=-1.0hPa 404.410 MHz Type=DFM17 ser=22035755 Radiosonde
KF0FCVD220357552022-12-06 01:31:1839.3888-105.3877919611803Clb=-3.5m/s t=-56.2C h=-1.0% p=-1.0hPa 404.410 MHz Type=DFM17 ser=22035755 Radiosonde
WI0KD220357552022-12-06 01:31:1639.3887-105.3887819411807Clb=-3.4m/s t=-56.2C h=-1.0% p=-1.0hPa 404.410 MHz Type=DFM17 ser=22035755 Radiosonde
KF0FCVD220357552022-12-06 01:30:4739.3862-105.4067919311907Clb=-3.8m/s t=-55.9C h=-1.0% p=-1.0hPa 404.410 MHz Type=DFM17 ser=22035755 Radiosonde
WI0KD220357552022-12-06 01:30:4539.386-105.4077819111914Clb=-3.5m/s t=-55.7C h=-1.0% p=-1.0hPa 404.410 MHz Type=DFM17 ser=22035755 Radiosonde
KF0FCVD220357552022-12-06 01:30:1639.3834-105.4247817612009Clb=-2.9m/s t=-55.6C h=-1.0% p=-1.0hPa 404.410 MHz Type=DFM17 ser=22035755 Radiosonde
WI0KD220357552022-12-06 01:30:1439.3834-105.4257818112012Clb=-3.1m/s t=-55.6C h=-1.0% p=-1.0hPa 404.410 MHz Type=DFM17 ser=22035755 Radiosonde
KF0FCVD220357552022-12-06 01:29:4539.3805-105.4427718512105Clb=-3.3m/s t=-56.2C h=-1.0% p=-1.0hPa 404.410 MHz Type=DFM17 ser=22035755 Radiosonde
WI0KD220357552022-12-06 01:29:4339.3802-105.4437718712115Clb=-3.4m/s t=-56.3C h=-1.0% p=-1.0hPa 404.410 MHz Type=DFM17 ser=22035755 Radiosonde
KF0FCVD220357552022-12-06 01:29:1339.3771-105.4617718312211Clb=-3.3m/s t=-56.9C h=-1.0% p=-1.0hPa 404.410 MHz Type=DFM17 ser=22035755 Radiosonde
WI0KD220357552022-12-06 01:29:1239.3771-105.4617718312211Clb=-3.3m/s t=-56.9C h=-1.0% p=-1.0hPa 404.410 MHz Type=DFM17 ser=22035755 Radiosonde
KF0FCVD220357552022-12-06 01:28:4239.3738-105.4797519112312Clb=-3.5m/s t=-57.3C h=-1.0% p=-1.0hPa 404.410 MHz Type=DFM17 ser=22035755 Radiosonde
WI0KD220357552022-12-06 01:28:4139.3737-105.4797618912316Clb=-3.5m/s t=-57.3C h=-1.0% p=-1.0hPa 404.410 MHz Type=DFM17 ser=22035755 Radiosonde
KF0FCVD220357552022-12-06 01:28:1139.37-105.4977519412426Clb=-3.9m/s t=-57.7C h=-1.0% p=-1.0hPa 404.410 MHz Type=DFM17 ser=22035755 Radiosonde
WI0KD220357552022-12-06 01:28:1039.3699-105.4987518912430Clb=-4.0m/s t=-57.7C h=-1.0% p=-1.0hPa 404.410 MHz Type=DFM17 ser=22035755 Radiosonde
KF0FCVD220357552022-12-06 01:27:4039.3664-105.5157618112558Clb=-4.5m/s t=-57.0C h=-1.0% p=-1.0hPa 404.410 MHz Type=DFM17 ser=22035755 Radiosonde
WI0KD220357552022-12-06 01:27:3939.3663-105.5167518312563Clb=-4.4m/s t=-57.0C h=-1.0% p=-1.0hPa 404.410 MHz Type=DFM17 ser=22035755 Radiosonde
KF0FCVD220357552022-12-06 01:27:0939.3631-105.5327317212701Clb=-4.6m/s t=-57.7C h=-1.0% p=-1.0hPa 404.410 MHz Type=DFM17 ser=22035755 Radiosonde
WI0KD220357552022-12-06 01:27:0839.3628-105.5337317012710Clb=-4.7m/s t=-57.7C h=-1.0% p=-1.0hPa 404.410 MHz Type=DFM17 ser=22035755 Radiosonde
KF0FCVD220357552022-12-06 01:26:3839.3587-105.5496916712855Clb=-4.8m/s t=-57.8C h=-1.0% p=-1.0hPa 404.410 MHz Type=DFM17 ser=22035755 Radiosonde
WI0KD220357552022-12-06 01:26:3739.3587-105.5496916712855Clb=-4.8m/s t=-57.8C h=-1.0% p=-1.0hPa 404.410 MHz Type=DFM17 ser=22035755 Radiosonde
KF0FCVD220357552022-12-06 01:26:0739.3535-105.5646517613001Clb=-5.1m/s t=-57.4C h=-1.0% p=-1.0hPa 404.410 MHz Type=DFM17 ser=22035755 Radiosonde
WI0KD220357552022-12-06 01:26:0639.3533-105.5656518013006Clb=-5.4m/s t=-57.4C h=-1.0% p=-1.0hPa 404.410 MHz Type=DFM17 ser=22035755 Radiosonde
KF0FCVD220357552022-12-06 01:25:3639.3482-105.5817219813173Clb=-5.9m/s t=-57.1C h=-1.0% p=-1.0hPa 404.410 MHz Type=DFM17 ser=22035755 Radiosonde
WI0KD220357552022-12-06 01:25:3439.3481-105.5827619313178Clb=-5.8m/s t=-57.2C h=-1.0% p=-1.0hPa 404.410 MHz Type=DFM17 ser=22035755 Radiosonde
KF0FCVD220357552022-12-06 01:25:0539.3442-105.5987219613358Clb=-6.0m/s t=-57.5C h=-1.0% p=-1.0hPa 404.410 MHz Type=DFM17 ser=22035755 Radiosonde
WI0KD220357552022-12-06 01:25:0439.3438-105.67516113376Clb=-5.3m/s t=-57.6C h=-1.0% p=-1.0hPa 404.410 MHz Type=DFM17 ser=22035755 Radiosonde
KF0FCVD220357552022-12-06 01:24:3439.3394-105.6157120213547Clb=-6.0m/s t=-59.0C h=-1.0% p=-1.0hPa 404.410 MHz Type=DFM17 ser=22035755 Radiosonde
WI0KD220357552022-12-06 01:24:3339.3391-105.6167517613560Clb=-6.4m/s t=-59.0C h=-1.0% p=-1.0hPa 404.410 MHz Type=DFM17 ser=22035755 Radiosonde
KF0FCVD220357552022-12-06 01:24:0339.3347-105.6327619113750Clb=-6.5m/s t=-59.6C h=-1.0% p=-1.0hPa 404.410 MHz Type=DFM17 ser=22035755 Radiosonde
WI0KD220357552022-12-06 01:24:0139.3346-105.6337817613756Clb=-6.8m/s t=-59.7C h=-1.0% p=-1.0hPa 404.410 MHz Type=DFM17 ser=22035755 Radiosonde
KF0FCVD220357552022-12-06 01:23:3239.3307-105.6486919113943Clb=-6.4m/s t=-60.9C h=-1.0% p=-1.0hPa 404.410 MHz Type=DFM17 ser=22035755 Radiosonde
WI0KD220357552022-12-06 01:23:3039.3305-105.6497818113956Clb=-6.4m/s t=-61.0C h=-1.0% p=-1.0hPa 404.410 MHz Type=DFM17 ser=22035755 Radiosonde
KF0FCVD220357552022-12-06 01:23:0139.3271-105.6657019314138Clb=-6.2m/s t=-61.4C h=-1.0% p=-1.0hPa 404.410 MHz Type=DFM17 ser=22035755 Radiosonde
WI0KD220357552022-12-06 01:22:5939.3268-105.6667820014150Clb=-5.9m/s t=-61.5C h=-1.0% p=-1.0hPa 404.410 MHz Type=DFM17 ser=22035755 Radiosonde
KF0FCVD220357552022-12-06 01:22:3039.3242-105.6837218014320Clb=-5.8m/s t=-60.9C h=-1.0% p=-1.0hPa 404.410 MHz Type=DFM17 ser=22035755 Radiosonde
WI0KD220357552022-12-06 01:22:2839.3239-105.6858419414337Clb=-5.8m/s t=-60.8C h=-1.0% p=-1.0hPa 404.410 MHz Type=DFM17 ser=22035755 Radiosonde
KF0FCVD220357552022-12-06 01:21:5939.3215-105.6996815214498Clb=-6.0m/s t=-61.3C h=-1.0% p=-1.0hPa 404.410 MHz Type=DFM17 ser=22035755 Radiosonde
WI0KD220357552022-12-06 01:21:5739.3212-105.77218114510Clb=-5.8m/s t=-61.4C h=-1.0% p=-1.0hPa 404.410 MHz Type=DFM17 ser=22035755 Radiosonde
KF0FCVD220357552022-12-06 01:21:2739.318-105.7156515414688Clb=-6.1m/s t=-61.8C h=-1.0% p=-1.0hPa 404.410 MHz Type=DFM17 ser=22035755 Radiosonde
WI0KD220357552022-12-06 01:21:2639.3179-105.7166617214693Clb=-6.1m/s t=-61.8C h=-1.0% p=-1.0hPa 404.410 MHz Type=DFM17 ser=22035755 Radiosonde
KF0FCVD220357552022-12-06 01:20:5639.3148-105.7317013914880Clb=-6.4m/s t=-62.4C h=-1.0% p=-1.0hPa 404.410 MHz Type=DFM17 ser=22035755 Radiosonde
WI0KD220357552022-12-06 01:20:5539.3147-105.7326515214887Clb=-6.7m/s t=-62.4C h=-1.0% p=-1.0hPa 404.410 MHz Type=DFM17 ser=22035755 Radiosonde
KF0FCVD220357552022-12-06 01:20:2639.3113-105.7477613115074Clb=-6.1m/s t=-63.6C h=-1.0% p=-1.0hPa 404.410 MHz Type=DFM17 ser=22035755 Radiosonde
WI0KD220357552022-12-06 01:20:2439.3112-105.7476813315080Clb=-6.0m/s t=-63.6C h=-1.0% p=-1.0hPa 404.410 MHz Type=DFM17 ser=22035755 Radiosonde
KF0FCVD220357552022-12-06 01:19:5439.3073-105.7617714415270Clb=-6.2m/s t=-64.2C h=-1.0% p=-1.0hPa 404.410 MHz Type=DFM17 ser=22035755 Radiosonde
WI0KD220357552022-12-06 01:19:5339.3071-105.7626214115283Clb=-6.3m/s t=-64.2C h=-1.0% p=-1.0hPa 404.410 MHz Type=DFM17 ser=22035755 Radiosonde
KF0FCVD220357552022-12-06 01:19:2339.3034-105.7768315715460Clb=-6.1m/s t=-64.6C h=-1.0% p=-1.0hPa 404.410 MHz Type=DFM17 ser=22035755 Radiosonde
WI0KD220357552022-12-06 01:19:2239.3033-105.7778113715466Clb=-5.9m/s t=-64.7C h=-1.0% p=-1.0hPa 404.410 MHz Type=DFM17 ser=22035755 Radiosonde
KF0FCVD220357552022-12-06 01:18:5239.2998-105.7918017615641Clb=-5.7m/s t=-66.0C h=-1.0% p=-1.0hPa 404.410 MHz Type=DFM17 ser=22035755 Radiosonde
WI0KD220357552022-12-06 01:18:5139.2997-105.7928315615647Clb=-5.6m/s t=-66.0C h=-1.0% p=-1.0hPa 404.410 MHz Type=DFM17 ser=22035755 Radiosonde
KF0FCVD220357552022-12-06 01:18:2139.2966-105.8067916915822Clb=-6.0m/s t=-66.2C h=-1.0% p=-1.0hPa 404.410 MHz Type=DFM17 ser=22035755 Radiosonde
WI0KD220357552022-12-06 01:18:2039.2966-105.8068415215827Clb=-6.0m/s t=-66.2C h=-1.0% p=-1.0hPa 404.410 MHz Type=DFM17 ser=22035755 Radiosonde
WI0KD220357552022-12-06 01:17:5139.2933-105.8198015716015Clb=-6.0m/s t=-67.2C h=-1.0% p=-1.0hPa 404.410 MHz Type=DFM17 ser=22035755 Radiosonde
WI0KD220357552022-12-06 01:17:1939.2896-105.8338514416221Clb=-6.4m/s t=-67.8C h=-1.0% p=-1.0hPa 404.410 MHz Type=DFM17 ser=22035755 Radiosonde
KF0FCVD220357552022-12-06 01:16:4839.2869-105.8478317216426Clb=-7.1m/s t=-67.1C h=-1.0% p=-1.0hPa 404.410 MHz Type=DFM17 ser=22035755 Radiosonde
WI0KD220357552022-12-06 01:16:4639.2869-105.8488815016433Clb=-7.0m/s t=-67.0C h=-1.0% p=-1.0hPa 404.410 MHz Type=DFM17 ser=22035755 Radiosonde
KF0FCVD220357552022-12-06 01:16:1739.284-105.8618316716635Clb=-7.0m/s t=-67.8C h=-1.0% p=-1.0hPa 404.410 MHz Type=DFM17 ser=22035755 Radiosonde
WI0KD220357552022-12-06 01:16:1639.2839-105.8628814416641Clb=-6.5m/s t=-67.8C h=-1.0% p=-1.0hPa 404.410 MHz Type=DFM17 ser=22035755 Radiosonde
WI0KD220357552022-12-06 01:15:4539.281-105.8758913916847Clb=-6.6m/s t=-68.1C h=-1.0% p=-1.0hPa 404.410 MHz Type=DFM17 ser=22035755 Radiosonde
WI0KD220357552022-12-06 01:15:1739.2786-105.8897910717052Clb=-6.7m/s t=-67.2C h=-1.0% p=-1.0hPa 404.410 MHz Type=DFM17 ser=22035755 Radiosonde
KF0FCVD220357552022-12-06 01:14:4839.2759-105.9018815717237Clb=-6.8m/s t=-66.4C h=-1.0% p=-1.0hPa 404.410 MHz Type=DFM17 ser=22035755 Radiosonde
WI0KD220357552022-12-06 01:14:4739.276-105.9029010617250Clb=-6.8m/s t=-66.5C h=-1.0% p=-1.0hPa 404.410 MHz Type=DFM17 ser=22035755 Radiosonde
KF0FCVD220357552022-12-06 01:14:1939.2744-105.9149714417462Clb=-7.6m/s t=-65.9C h=-1.0% p=-1.0hPa 404.410 MHz Type=DFM17 ser=22035755 Radiosonde
WI0KD220357552022-12-06 01:14:1739.2744-105.915859817477Clb=-7.6m/s t=-65.8C h=-1.0% p=-1.0hPa 404.410 MHz Type=DFM17 ser=22035755 Radiosonde
WI0KD220357552022-12-06 01:13:4639.2743-105.9287510417733Clb=-8.6m/s t=-65.9C h=-1.0% p=-1.0hPa 404.410 MHz Type=DFM17 ser=22035755 Radiosonde
WI0KD220357552022-12-06 01:13:1539.2745-105.9418012418002Clb=-8.8m/s t=-64.5C h=-1.0% p=-1.0hPa 404.410 MHz Type=DFM17 ser=22035755 Radiosonde
WI0KD220357552022-12-06 01:12:4539.2761-105.9529014818259Clb=-8.0m/s t=-64.1C h=-1.0% p=-1.0hPa 404.410 MHz Type=DFM17 ser=22035755 Radiosonde
WI0KD220357552022-12-06 01:12:1239.2759-105.96410212618499Clb=-7.1m/s t=-63.9C h=-1.0% p=-1.0hPa 404.410 MHz Type=DFM17 ser=22035755 Radiosonde
WI0KD220357552022-12-06 01:11:4039.2752-105.975907018704Clb=-6.6m/s t=-61.2C h=-1.0% p=-1.0hPa 404.410 MHz Type=DFM17 ser=22035755 Radiosonde
WI0KD220357552022-12-06 01:11:1039.2753-105.9868815218935Clb=-8.2m/s t=-62.3C h=-1.0% p=-1.0hPa 404.410 MHz Type=DFM17 ser=22035755 Radiosonde
WI0KD220357552022-12-06 01:10:3839.2774-105.99610511919180Clb=-8.4m/s t=-60.2C h=-1.0% p=-1.0hPa 404.410 MHz Type=DFM17 ser=22035755 Radiosonde
WI0KD220357552022-12-06 01:10:0739.2796-106.0051045719490Clb=-9.3m/s t=-58.7C h=-1.0% p=-1.0hPa 404.410 MHz Type=DFM17 ser=22035755 Radiosonde
WI0KD220357552022-12-06 01:09:3739.2801-106.011948519782Clb=-9.1m/s t=-56.4C h=-1.0% p=-1.0hPa 404.410 MHz Type=DFM17 ser=22035755 Radiosonde
WI0KD220357552022-12-06 01:09:0539.2789-106.016202420098Clb=-10.4m/s t=-57.4C h=-1.0% p=-1.0hPa 404.410 MHz Type=DFM17 ser=22035755 Radiosonde
WI0KD220357552022-12-06 01:08:3139.2761-106.02642420392Clb=-9.3m/s t=-58.8C h=-1.0% p=-1.0hPa 404.410 MHz Type=DFM17 ser=22035755 Radiosonde
WI0KD220357552022-12-06 01:07:5839.2728-106.023745620668Clb=-8.3m/s t=-60.9C h=-1.0% p=-1.0hPa 404.410 MHz Type=DFM17 ser=22035755 Radiosonde
WI0KD220357552022-12-06 01:07:2739.2702-106.028738320904Clb=-7.3m/s t=-61.2C h=-1.0% p=-1.0hPa 404.410 MHz Type=DFM17 ser=22035755 Radiosonde
WI0KD220357552022-12-06 01:06:5639.27-106.033715621155Clb=-8.7m/s t=-61.3C h=-1.0% p=-1.0hPa 404.410 MHz Type=DFM17 ser=22035755 Radiosonde
WI0KD220357552022-12-06 01:06:4339.2713-106.0361921521441Clb=-9.6m/s t=-63.4C h=-1.0% p=-1.0hPa 404.410 MHz Type=DFM17 ser=22035755 Radiosonde
WI0KD220357552022-12-06 01:06:4139.2731-106.0391972821741Clb=-10.4m/s t=-65.3C h=-1.0% p=-1.0hPa 404.410 MHz Type=DFM17 ser=22035755 Radiosonde
WI0KD220357552022-12-06 01:06:3739.2751-106.0421448122086Clb=-12.7m/s t=-65.2C h=-1.0% p=-1.0hPa 404.410 MHz Type=DFM17 ser=22035755 Radiosonde
WI0KD220357552022-12-06 01:06:1539.2772-106.04910610922481Clb=-13.3m/s t=-63.6C h=-1.0% p=-1.0hPa 404.410 MHz Type=DFM17 ser=22035755 Radiosonde
WI0KD220357552022-12-06 01:06:0039.2792-106.0578510222896Clb=-13.9m/s t=-64.1C h=-1.0% p=-1.0hPa 404.410 MHz Type=DFM17 ser=22035755 Radiosonde
WI0KD220357552022-12-06 01:05:5439.2815-106.0651357423315Clb=-12.7m/s t=-63.6C h=-1.0% p=-1.0hPa 404.410 MHz Type=DFM17 ser=22035755 Radiosonde
WI0KD220357552022-12-06 01:05:4939.2844-106.07312412823700Clb=-12.5m/s t=-61.3C h=-1.0% p=-1.0hPa 404.410 MHz Type=DFM17 ser=22035755 Radiosonde
WI0KD220357552022-12-06 01:05:4139.2881-106.081996924104Clb=-13.6m/s t=-57.7C h=-1.0% p=-1.0hPa 404.410 MHz Type=DFM17 ser=22035755 Radiosonde
WI0KD220357552022-12-06 01:05:1239.2908-106.0871536124538Clb=-14.7m/s t=-57.0C h=-1.0% p=-1.0hPa 404.410 MHz Type=DFM17 ser=22035755 Radiosonde
WI0KD220357552022-12-06 01:05:0039.2929-106.093803025035Clb=-16.0m/s t=-55.4C h=-1.0% p=-1.0hPa 404.410 MHz Type=DFM17 ser=22035755 Radiosonde
WI0KD220357552022-12-06 01:04:5839.2951-106.0942106725474Clb=-14.4m/s t=-56.9C h=-1.0% p=-1.0hPa 404.410 MHz Type=DFM17 ser=22035755 Radiosonde
WI0KD220357552022-12-06 01:04:3539.2978-106.0951158725928Clb=-15.2m/s t=-58.8C h=-1.0% p=-1.0hPa 404.410 MHz Type=DFM17 ser=22035755 Radiosonde
WI0KD220357552022-12-06 01:03:5539.2997-106.0992211126445Clb=-17.6m/s t=-56.8C h=-1.0% p=-1.0hPa 404.410 MHz Type=DFM17 ser=22035755 Radiosonde
WI0KD220357552022-12-06 01:03:1139.3025-106.1031577626966Clb=-16.1m/s t=-55.4C h=-1.0% p=-1.0hPa 404.410 MHz Type=DFM17 ser=22035755 Radiosonde
WI0KD220357552022-12-06 01:02:3139.307-106.1071094827498Clb=-16.6m/s t=-55.4C h=-1.0% p=-1.0hPa 404.410 MHz Type=DFM17 ser=22035755 Radiosonde
WI0KD220357552022-12-06 01:01:5039.3082-106.113845028030Clb=-19.9m/s t=-54.6C h=-1.0% p=-1.0hPa 404.410 MHz Type=DFM17 ser=22035755 Radiosonde
WI0KD220357552022-12-06 01:01:0339.3093-106.121305728654Clb=-22.8m/s t=-54.6C h=-1.0% p=-1.0hPa 404.410 MHz Type=DFM17 ser=22035755 Radiosonde
WI0KD220357552022-12-06 01:00:2039.3103-106.1287812229271Clb=-20.6m/s t=-54.3C h=-1.0% p=-1.0hPa 404.410 MHz Type=DFM17 ser=22035755 Radiosonde
WI0KD220357552022-12-06 00:59:3739.3112-106.1411713129930Clb=-21.5m/s t=-53.0C h=-1.0% p=-1.0hPa 404.410 MHz Type=DFM17 ser=22035755 Radiosonde
WI0KD220357552022-12-06 00:58:5439.3137-106.1510814130670Clb=-22.8m/s t=-53.2C h=-1.0% p=-1.0hPa 404.410 MHz Type=DFM17 ser=22035755 Radiosonde
WI0KD220357552022-12-06 00:58:1139.3167-106.16111412631391Clb=-23.7m/s t=-53.0C h=-1.0% p=-1.0hPa 404.410 MHz Type=DFM17 ser=22035755 Radiosonde
WI0KD220357552022-12-06 00:57:2439.3189-106.1749111932107Clb=-21.3m/s t=-52.9C h=-1.0% p=-1.0hPa 404.410 MHz Type=DFM17 ser=22035755 Radiosonde
WI0KD220357552022-12-06 00:56:3939.3206-106.1889115732833Clb=-21.1m/s t=-50.2C h=-1.0% p=-1.0hPa 404.410 MHz Type=DFM17 ser=22035755 Radiosonde
WI0KD220357552022-12-06 00:55:5439.3211-106.2048913033617Clb=-29.4m/s t=-47.1C h=-1.0% p=-1.0hPa 404.410 MHz Type=DFM17 ser=22035755 Radiosonde
WI0KD220357552022-12-06 00:55:0939.3236-106.2199517434440Clb=-23.2m/s t=-47.1C h=-1.0% p=-1.0hPa 404.410 MHz Type=DFM17 ser=22035755 Radiosonde
WI0KD220357552022-12-06 00:54:2239.3233-106.2378317235059Clb=5.7m/s t=-47.5C h=-1.0% p=-1.0hPa 404.410 MHz Type=DFM17 ser=22035755 Radiosonde
WI0KD220357552022-12-06 00:53:3239.3229-106.2548918734891Clb=6.0m/s t=-47.4C h=-1.0% p=-1.0hPa 404.410 MHz Type=DFM17 ser=22035755 Radiosonde
WI0KD220357552022-12-06 00:52:4239.323-106.2729115934721Clb=5.2m/s t=-48.0C h=-1.0% p=-1.0hPa 404.410 MHz Type=DFM17 ser=22035755 Radiosonde
WI0KD220357552022-12-06 00:51:5639.324-106.2889719434560Clb=4.7m/s t=-47.3C h=-1.0% p=-1.0hPa 404.410 MHz Type=DFM17 ser=22035755 Radiosonde
WI0KD220357552022-12-06 00:51:2539.3254-106.3079716734399Clb=4.1m/s t=-47.7C h=-1.0% p=-1.0hPa 404.410 MHz Type=DFM17 ser=22035755 Radiosonde
WI0KD220357552022-12-06 00:50:5339.327-106.32410118134236Clb=4.3m/s t=-47.8C h=-1.0% p=-1.0hPa 404.410 MHz Type=DFM17 ser=22035755 Radiosonde
WI0KD220357552022-12-06 00:50:2439.3277-106.3398711534078Clb=4.8m/s t=-48.8C h=-1.0% p=-1.0hPa 404.410 MHz Type=DFM17 ser=22035755 Radiosonde
WI0KD220357552022-12-06 00:49:5139.3295-106.35310517233914Clb=5.4m/s t=-48.0C h=-1.0% p=-1.0hPa 404.410 MHz Type=DFM17 ser=22035755 Radiosonde
WI0KD220357552022-12-06 00:49:3639.3397-106.4741068932397Clb=10.6m/s t=-52.4C h=-1.0% p=-1.0hPa 404.410 MHz Type=DFM17 ser=22035755 Radiosonde
WI0KD220357552022-12-06 00:49:3439.3411-106.48711010732212Clb=9.5m/s t=-52.1C h=-1.0% p=-1.0hPa 404.410 MHz Type=DFM17 ser=22035755 Radiosonde
WI0KD220357552022-12-06 00:49:3239.3428-106.49811615032032Clb=10.1m/s t=-52.1C h=-1.0% p=-1.0hPa 404.410 MHz Type=DFM17 ser=22035755 Radiosonde
WI0KD220357552022-12-06 00:49:3039.3446-106.5099214331851Clb=3.9m/s t=-51.5C h=-1.0% p=-1.0hPa 404.410 MHz Type=DFM17 ser=22035755 Radiosonde
WI0KD220357552022-12-06 00:49:2839.3469-106.522989831667Clb=9.6m/s t=-51.7C h=-1.0% p=-1.0hPa 404.410 MHz Type=DFM17 ser=22035755 Radiosonde
WI0KD220357552022-12-06 00:49:0539.3497-106.5367711931451Clb=6.1m/s t=-51.9C h=-1.0% p=-1.0hPa 404.410 MHz Type=DFM17 ser=22035755 Radiosonde
WI0KD220357552022-12-06 00:48:1139.3515-106.54812011731246Clb=5.0m/s t=-52.2C h=-1.0% p=-1.0hPa 404.410 MHz Type=DFM17 ser=22035755 Radiosonde
WI0KD220357552022-12-06 00:47:1439.3541-106.5612916531028Clb=6.3m/s t=-52.2C h=-1.0% p=-1.0hPa 404.410 MHz Type=DFM17 ser=22035755 Radiosonde
WI0KD220357552022-12-06 00:46:1939.3575-106.5721267030798Clb=6.6m/s t=-52.0C h=-1.0% p=-1.0hPa 404.410 MHz Type=DFM17 ser=22035755 Radiosonde
WI0KD220357552022-12-06 00:45:2339.3593-106.58212011930603Clb=6.0m/s t=-52.2C h=-1.0% p=-1.0hPa 404.410 MHz Type=DFM17 ser=22035755 Radiosonde
WI0KD220357552022-12-06 00:44:3139.3612-106.5921268530399Clb=7.3m/s t=-52.3C h=-1.0% p=-1.0hPa 404.410 MHz Type=DFM17 ser=22035755 Radiosonde
WI0KD220357552022-12-06 00:43:3539.3635-106.6031257030210Clb=2.1m/s t=-52.8C h=-1.0% p=-1.0hPa 404.410 MHz Type=DFM17 ser=22035755 Radiosonde
WI0KD220357552022-12-06 00:42:3839.3653-106.6131289630030Clb=5.5m/s t=-52.9C h=-1.0% p=-1.0hPa 404.410 MHz Type=DFM17 ser=22035755 Radiosonde
WI0KD220357552022-12-06 00:41:3739.3666-106.62411311729844Clb=8.8m/s t=-53.0C h=-1.0% p=-1.0hPa 404.410 MHz Type=DFM17 ser=22035755 Radiosonde
WI0KD220357552022-12-06 00:40:3839.3666-106.637868029618Clb=11.0m/s t=-52.6C h=-1.0% p=-1.0hPa 404.410 MHz Type=DFM17 ser=22035755 Radiosonde
WI0KD220357552022-12-06 00:39:4039.366-106.64911111329358Clb=8.5m/s t=-52.5C h=-1.0% p=-1.0hPa 404.410 MHz Type=DFM17 ser=22035755 Radiosonde
WI0KD220357552022-12-06 00:38:4639.3661-106.65911613029119Clb=4.8m/s t=-53.1C h=-1.0% p=-1.0hPa 404.410 MHz Type=DFM17 ser=22035755 Radiosonde
WI0KD220357552022-12-06 00:37:4839.3673-106.6681288728902Clb=2.5m/s t=-54.3C h=-1.0% p=-1.0hPa 404.410 MHz Type=DFM17 ser=22035755 Radiosonde
WI0KD220357552022-12-06 00:36:4339.3689-106.6761169428699Clb=1.6m/s t=-54.0C h=-1.0% p=-1.0hPa 404.410 MHz Type=DFM17 ser=22035755 Radiosonde
WI0KD220357552022-12-06 00:35:5339.3703-106.68511311128517Clb=3.5m/s t=-54.1C h=-1.0% p=-1.0hPa 404.410 MHz Type=DFM17 ser=22035755 Radiosonde
WI0KD220357552022-12-06 00:35:2539.372-106.69412110228342Clb=2.5m/s t=-55.7C h=-1.0% p=-1.0hPa 404.410 MHz Type=DFM17 ser=22035755 Radiosonde
WI0KD220357552022-12-06 00:34:5139.3736-106.70210710728173Clb=8.8m/s t=-55.8C h=-1.0% p=-1.0hPa 404.410 MHz Type=DFM17 ser=22035755 Radiosonde
WI0KD220357552022-12-06 00:34:2339.3756-106.70912311127993Clb=10.0m/s t=-57.1C h=-1.0% p=-1.0hPa 404.410 MHz Type=DFM17 ser=22035755 Radiosonde
WI0KD220357552022-12-06 00:33:4939.3787-106.71413310227794Clb=7.7m/s t=-57.4C h=-1.0% p=-1.0hPa 404.410 MHz Type=DFM17 ser=22035755 Radiosonde
WI0KD220357552022-12-06 00:33:1839.3832-106.7181697227576Clb=7.5m/s t=-56.5C h=-1.0% p=-1.0hPa 404.410 MHz Type=DFM17 ser=22035755 Radiosonde
WI0KD220357552022-12-06 00:33:0039.4164-106.7841515424504Clb=9.2m/s t=-58.3C h=-1.0% p=-1.0hPa 404.410 MHz Type=DFM17 ser=22035755 Radiosonde
WI0KD220357552022-12-06 00:31:5839.4196-106.7871426924272Clb=8.4m/s t=-60.1C h=-1.0% p=-1.0hPa 404.410 MHz Type=DFM17 ser=22035755 Radiosonde
WI0KD220357552022-12-06 00:30:5939.4241-106.79314011324026Clb=5.5m/s t=-60.4C h=-1.0% p=-1.0hPa 404.410 MHz Type=DFM17 ser=22035755 Radiosonde
WI0KD220357552022-12-06 00:30:0139.4278-106.79910710023802Clb=4.4m/s t=-59.7C h=-1.0% p=-1.0hPa 404.410 MHz Type=DFM17 ser=22035755 Radiosonde
WI0KD220357552022-12-06 00:29:0339.4318-106.8051227223609Clb=7.4m/s t=-59.4C h=-1.0% p=-1.0hPa 404.410 MHz Type=DFM17 ser=22035755 Radiosonde
WI0KD220357552022-12-06 00:28:0739.4357-106.8111125723437Clb=3.2m/s t=-59.4C h=-1.0% p=-1.0hPa 404.410 MHz Type=DFM17 ser=22035755 Radiosonde
WI0KD220357552022-12-06 00:27:0639.4392-106.8181096323279Clb=2.9m/s t=-59.7C h=-1.0% p=-1.0hPa 404.410 MHz Type=DFM17 ser=22035755 Radiosonde
WI0KD220357552022-12-06 00:26:0639.4424-106.8251287223139Clb=4.2m/s t=-61.9C h=-1.0% p=-1.0hPa 404.410 MHz Type=DFM17 ser=22035755 Radiosonde
WI0KD220357552022-12-06 00:25:0739.4449-106.8311346722994Clb=4.8m/s t=-63.0C h=-1.0% p=-1.0hPa 404.410 MHz Type=DFM17 ser=22035755 Radiosonde
WI0KD220357552022-12-06 00:24:0639.4473-106.841179322845Clb=7.9m/s t=-62.7C h=-1.0% p=-1.0hPa 404.410 MHz Type=DFM17 ser=22035755 Radiosonde
WI0KD220357552022-12-06 00:23:0939.4488-106.8491098922680Clb=7.4m/s t=-63.3C h=-1.0% p=-1.0hPa 404.410 MHz Type=DFM17 ser=22035755 Radiosonde
WI0KD220357552022-12-06 00:22:0939.4505-106.8571217622510Clb=6.1m/s t=-63.0C h=-1.0% p=-1.0hPa 404.410 MHz Type=DFM17 ser=22035755 Radiosonde
WI0KD220357552022-12-06 00:21:1239.452-106.864957622352Clb=5.5m/s t=-62.1C h=-1.0% p=-1.0hPa 404.410 MHz Type=DFM17 ser=22035755 Radiosonde
WI0KD220357552022-12-06 00:20:1239.4532-106.8711087822197Clb=3.8m/s t=-64.0C h=-1.0% p=-1.0hPa 404.410 MHz Type=DFM17 ser=22035755 Radiosonde
WI0KD220357552022-12-06 00:19:1439.454-106.8781127822030Clb=7.5m/s t=-65.0C h=-1.0% p=-1.0hPa 404.410 MHz Type=DFM17 ser=22035755 Radiosonde
WI0KD220357552022-12-06 00:18:1939.4541-106.884776521857Clb=6.9m/s t=-64.8C h=-1.0% p=-1.0hPa 404.410 MHz Type=DFM17 ser=22035755 Radiosonde
WI0KD220357552022-12-06 00:17:1939.4546-106.89936521676Clb=5.9m/s t=-63.9C h=-1.0% p=-1.0hPa 404.410 MHz Type=DFM17 ser=22035755 Radiosonde
WI0KD220357552022-12-06 00:16:2139.4562-106.8961325421493Clb=7.2m/s t=-63.5C h=-1.0% p=-1.0hPa 404.410 MHz Type=DFM17 ser=22035755 Radiosonde
WI0KD220357552022-12-06 00:15:4339.458-106.901985221298Clb=7.6m/s t=-62.5C h=-1.0% p=-1.0hPa 404.410 MHz Type=DFM17 ser=22035755 Radiosonde
WI0KD220357552022-12-06 00:15:1439.458-106.906945221095Clb=3.9m/s t=-62.4C h=-1.0% p=-1.0hPa 404.410 MHz Type=DFM17 ser=22035755 Radiosonde
WI0KD220357552022-12-06 00:14:4439.4566-106.91424320902Clb=5.8m/s t=-62.1C h=-1.0% p=-1.0hPa 404.410 MHz Type=DFM17 ser=22035755 Radiosonde
WI0KD220357552022-12-06 00:14:3439.4549-106.914744620746Clb=5.0m/s t=-61.6C h=-1.0% p=-1.0hPa 404.410 MHz Type=DFM17 ser=22035755 Radiosonde
WI0KD220357552022-12-06 00:14:0139.4539-106.918643720601Clb=2.0m/s t=-61.5C h=-1.0% p=-1.0hPa 404.410 MHz Type=DFM17 ser=22035755 Radiosonde
WI0KD220357552022-12-06 00:13:5239.454-106.9221006720457Clb=3.5m/s t=-61.0C h=-1.0% p=-1.0hPa 404.410 MHz Type=DFM17 ser=22035755 Radiosonde
WI0KD220357552022-12-06 00:13:4439.4545-106.9291037020339Clb=4.1m/s t=-61.9C h=-1.0% p=-1.0hPa 404.410 MHz Type=DFM17 ser=22035755 Radiosonde
WI0KD220357552022-12-06 00:13:3939.4557-106.934985920209Clb=5.7m/s t=-62.9C h=-1.0% p=-1.0hPa 404.410 MHz Type=DFM17 ser=22035755 Radiosonde
WI0KD220357552022-12-06 00:13:3639.4565-106.941015620066Clb=6.1m/s t=-64.0C h=-1.0% p=-1.0hPa 404.410 MHz Type=DFM17 ser=22035755 Radiosonde
WI0KD220357552022-12-06 00:13:2739.4582-106.9451266119896Clb=4.7m/s t=-63.6C h=-1.0% p=-1.0hPa 404.410 MHz Type=DFM17 ser=22035755 Radiosonde
WI0KD220357552022-12-06 00:13:0039.461-106.9491436719721Clb=5.4m/s t=-62.7C h=-1.0% p=-1.0hPa 404.410 MHz Type=DFM17 ser=22035755 Radiosonde
WI0KD220357552022-12-06 00:12:5939.4641-106.9541326519569Clb=4.8m/s t=-61.7C h=-1.0% p=-1.0hPa 404.410 MHz Type=DFM17 ser=22035755 Radiosonde
WI0KD220357552022-12-06 00:12:5739.4665-106.961998719379Clb=5.1m/s t=-63.8C h=-1.0% p=-1.0hPa 404.410 MHz Type=DFM17 ser=22035755 Radiosonde
WI0KD220357552022-12-06 00:12:5039.4669-106.969847619221Clb=5.0m/s t=-62.8C h=-1.0% p=-1.0hPa 404.410 MHz Type=DFM17 ser=22035755 Radiosonde
WI0KD220357552022-12-06 00:12:0039.4666-106.976799319071Clb=4.6m/s t=-62.2C h=-1.0% p=-1.0hPa 404.410 MHz Type=DFM17 ser=22035755 Radiosonde
WI0KD220357552022-12-06 00:11:0439.4666-106.984906918932Clb=3.9m/s t=-62.0C h=-1.0% p=-1.0hPa 404.410 MHz Type=DFM17 ser=22035755 Radiosonde
WI0KD220357552022-12-06 00:10:0539.4664-106.993849118796Clb=4.6m/s t=-61.5C h=-1.0% p=-1.0hPa 404.410 MHz Type=DFM17 ser=22035755 Radiosonde
WI0KD220357552022-12-06 00:09:0839.466-107.0028310018658Clb=5.1m/s t=-62.2C h=-1.0% p=-1.0hPa 404.410 MHz Type=DFM17 ser=22035755 Radiosonde
WI0KD220357552022-12-06 00:08:1039.4652-107.011799318513Clb=5.9m/s t=-65.0C h=-1.0% p=-1.0hPa 404.410 MHz Type=DFM17 ser=22035755 Radiosonde
WI0KD220357552022-12-06 00:07:1439.4644-107.028610018362Clb=4.9m/s t=-66.0C h=-1.0% p=-1.0hPa 404.410 MHz Type=DFM17 ser=22035755 Radiosonde
WI0KD220357552022-12-06 00:06:2139.4643-107.03899618215Clb=5.8m/s t=-66.8C h=-1.0% p=-1.0hPa 404.410 MHz Type=DFM17 ser=22035755 Radiosonde
WI0KD220357552022-12-06 00:05:2239.4644-107.04959618064Clb=3.4m/s t=-66.8C h=-1.0% p=-1.0hPa 404.410 MHz Type=DFM17 ser=22035755 Radiosonde
WI0KD220357552022-12-06 00:04:2839.4639-107.0517811317896Clb=7.0m/s t=-66.3C h=-1.0% p=-1.0hPa 404.410 MHz Type=DFM17 ser=22035755 Radiosonde
WI0KD220357552022-12-06 00:03:4739.4621-107.06748717730Clb=5.6m/s t=-66.9C h=-1.0% p=-1.0hPa 404.410 MHz Type=DFM17 ser=22035755 Radiosonde
WI0KD220357552022-12-06 00:03:1939.4605-107.0697810917557Clb=5.2m/s t=-66.6C h=-1.0% p=-1.0hPa 404.410 MHz Type=DFM17 ser=22035755 Radiosonde
WI0KD220357552022-12-06 00:02:4539.4594-107.078877617382Clb=6.1m/s t=-65.4C h=-1.0% p=-1.0hPa 404.410 MHz Type=DFM17 ser=22035755 Radiosonde
WI0KD220357552022-12-06 00:02:1539.4584-107.0876711717191Clb=4.9m/s t=-65.2C h=-1.0% p=-1.0hPa 404.410 MHz Type=DFM17 ser=22035755 Radiosonde
WI0KD220357552022-12-06 00:01:4339.4559-107.0976211717027Clb=3.5m/s t=-66.1C h=-1.0% p=-1.0hPa 404.410 MHz Type=DFM17 ser=22035755 Radiosonde
WI0KD220357552022-12-06 00:01:1239.4529-107.1087610916871Clb=4.6m/s t=-66.1C h=-1.0% p=-1.0hPa 404.410 MHz Type=DFM17 ser=22035755 Radiosonde
WI0KD220357552022-12-06 00:00:5339.4473-107.128699616553Clb=6.0m/s t=-65.4C h=-1.0% p=-1.0hPa 404.410 MHz Type=DFM17 ser=22035755 Radiosonde
WI0KD220357552022-12-06 00:00:4739.4456-107.1388111116403Clb=4.6m/s t=-64.7C h=-1.0% p=-1.0hPa 404.410 MHz Type=DFM17 ser=22035755 Radiosonde
WI0KD220357552022-12-06 00:00:3839.4442-107.1497810716257Clb=4.0m/s t=-63.6C h=-1.0% p=-1.0hPa 404.410 MHz Type=DFM17 ser=22035755 Radiosonde
WI0KD220357552022-12-06 00:00:3339.443-107.167711916107Clb=4.8m/s t=-62.8C h=-1.0% p=-1.0hPa 404.410 MHz Type=DFM17 ser=22035755 Radiosonde
WI0KD220357552022-12-06 00:00:3039.4416-107.1717713915965Clb=4.8m/s t=-62.4C h=-1.0% p=-1.0hPa 404.410 MHz Type=DFM17 ser=22035755 Radiosonde
WI0KD220357552022-12-05 23:59:4939.4392-107.1846914815819Clb=3.9m/s t=-61.6C h=-1.0% p=-1.0hPa 404.410 MHz Type=DFM17 ser=22035755 Radiosonde
WI0KD220357552022-12-05 23:58:5439.4362-107.1987113115681Clb=5.5m/s t=-61.8C h=-1.0% p=-1.0hPa 404.410 MHz Type=DFM17 ser=22035755 Radiosonde
WI0KD220357552022-12-05 23:58:0139.433-107.2116914315545Clb=3.6m/s t=-62.2C h=-1.0% p=-1.0hPa 404.410 MHz Type=DFM17 ser=22035755 Radiosonde
WI0KD220357552022-12-05 23:57:0539.4298-107.2247413915407Clb=4.3m/s t=-62.2C h=-1.0% p=-1.0hPa 404.410 MHz Type=DFM17 ser=22035755 Radiosonde
WI0KD220357552022-12-05 23:56:0939.4273-107.2367113315276Clb=5.7m/s t=-61.7C h=-1.0% p=-1.0hPa 404.410 MHz Type=DFM17 ser=22035755 Radiosonde
WI0KD220357552022-12-05 23:56:0039.424-107.2497313715146Clb=3.7m/s t=-60.8C h=-1.0% p=-1.0hPa 404.410 MHz Type=DFM17 ser=22035755 Radiosonde
WI0KD220357552022-12-05 23:55:5539.4207-107.2627214315023Clb=5.2m/s t=-59.8C h=-1.0% p=-1.0hPa 404.410 MHz Type=DFM17 ser=22035755 Radiosonde
WI0KD220357552022-12-05 23:55:1039.4174-107.2767314614899Clb=5.5m/s t=-60.1C h=-1.0% p=-1.0hPa 404.410 MHz Type=DFM17 ser=22035755 Radiosonde
WI0KD220357552022-12-05 23:54:2139.4143-107.297414614770Clb=4.8m/s t=-60.0C h=-1.0% p=-1.0hPa 404.410 MHz Type=DFM17 ser=22035755 Radiosonde
WI0KD220357552022-12-05 23:53:3039.4117-107.3047516314640Clb=4.3m/s t=-60.3C h=-1.0% p=-1.0hPa 404.410 MHz Type=DFM17 ser=22035755 Radiosonde
WI0KD220357552022-12-05 23:52:4039.4086-107.3187413514502Clb=5.4m/s t=-59.6C h=-1.0% p=-1.0hPa 404.410 MHz Type=DFM17 ser=22035755 Radiosonde
WI0KD220357552022-12-05 23:51:5339.4062-107.3328113914359Clb=5.0m/s t=-59.5C h=-1.0% p=-1.0hPa 404.410 MHz Type=DFM17 ser=22035755 Radiosonde
WI0KD220357552022-12-05 23:51:2239.4042-107.3477715014212Clb=5.5m/s t=-58.9C h=-1.0% p=-1.0hPa 404.410 MHz Type=DFM17 ser=22035755 Radiosonde
WI0KD220357552022-12-05 23:51:1639.4016-107.3648015714054Clb=3.5m/s t=-58.5C h=-1.0% p=-1.0hPa 404.410 MHz Type=DFM17 ser=22035755 Radiosonde
WI0KD220357552022-12-05 23:51:1439.3985-107.387717813895Clb=5.6m/s t=-58.0C h=-1.0% p=-1.0hPa 404.410 MHz Type=DFM17 ser=22035755 Radiosonde
WI0KD220357552022-12-05 23:50:5139.3946-107.3976918013729Clb=5.7m/s t=-57.4C h=-1.0% p=-1.0hPa 404.410 MHz Type=DFM17 ser=22035755 Radiosonde
WI0KD220357552022-12-05 23:50:0139.3907-107.4136916313573Clb=5.4m/s t=-56.1C h=-1.0% p=-1.0hPa 404.410 MHz Type=DFM17 ser=22035755 Radiosonde
WI0KD220357552022-12-05 23:49:1339.3867-107.437416313421Clb=4.8m/s t=-55.1C h=-1.0% p=-1.0hPa 404.410 MHz Type=DFM17 ser=22035755 Radiosonde
WI0KD220357552022-12-05 23:48:2339.383-107.4457615913290Clb=2.8m/s t=-54.4C h=-1.0% p=-1.0hPa 404.410 MHz Type=DFM17 ser=22035755 Radiosonde
WI0KD220357552022-12-05 23:47:4439.3793-107.4617317013168Clb=3.9m/s t=-54.1C h=-1.0% p=-1.0hPa 404.410 MHz Type=DFM17 ser=22035755 Radiosonde
WI0KD220357552022-12-05 23:47:1439.3759-107.4797920213041Clb=2.3m/s t=-55.3C h=-1.0% p=-1.0hPa 404.410 MHz Type=DFM17 ser=22035755 Radiosonde
WI0KD220357552022-12-05 23:46:5039.3718-107.4987219412944Clb=3.8m/s t=-59.7C h=-1.0% p=-1.0hPa 404.410 MHz Type=DFM17 ser=22035755 Radiosonde
WI0KD220357552022-12-05 23:46:4839.3673-107.5167319812856Clb=2.0m/s t=-59.6C h=-1.0% p=-1.0hPa 404.410 MHz Type=DFM17 ser=22035755 Radiosonde
WI0KD220357552022-12-05 23:46:3439.3631-107.5357420412764Clb=2.4m/s t=-59.1C h=-1.0% p=-1.0hPa 404.410 MHz Type=DFM17 ser=22035755 Radiosonde
WI0KD220357552022-12-05 23:45:4439.3594-107.5547720012666Clb=3.0m/s t=-58.3C h=-1.0% p=-1.0hPa 404.410 MHz Type=DFM17 ser=22035755 Radiosonde
WI0KD220357552022-12-05 23:44:5539.3557-107.5747520212553Clb=3.7m/s t=-57.4C h=-1.0% p=-1.0hPa 404.410 MHz Type=DFM17 ser=22035755 Radiosonde
WI0KD220357552022-12-05 23:44:0939.3523-107.5937820712437Clb=3.8m/s t=-57.0C h=-1.0% p=-1.0hPa 404.410 MHz Type=DFM17 ser=22035755 Radiosonde